Time,TemperatureF,DewpointF,PressureIn,WindDirection,WindDirectionDegrees,WindSpeedMPH,WindSpeedGustMPH,Humidity,HourlyPrecipIn,Conditions,Clouds,dailyrainin,SoftwareType,DateUTC
2017-06-22 00:05:00,66.0,62.0,29.86,SSE,157,0.0,-999.0,87,-99.99,,,0.00,,2017-06-22 04:05:00,
2017-06-22 00:15:00,65.5,61.5,29.86,ESE,112,0.0,-999.0,87,-99.99,,,0.00,,2017-06-22 04:15:00,
2017-06-22 00:32:00,64.9,60.9,29.86,NNE,22,0.0,-999.0,87,-99.99,,,0.00,,2017-06-22 04:32:00,
2017-06-22 00:38:00,64.9,61.6,29.87,SSW,202,0.0,-999.0,89,-99.99,,,0.00,,2017-06-22 04:38:00,
2017-06-22 00:44:00,65.3,62.0,29.87,ESE,112,0.0,-999.0,89,-99.99,,,0.00,,2017-06-22 04:44:00,
2017-06-22 00:56:00,64.9,61.6,29.87,WSW,247,0.0,-999.0,89,-99.99,,,0.00,,2017-06-22 04:56:00,
2017-06-22 01:04:00,64.8,61.5,29.87,West,270,0.0,-999.0,89,-99.99,,,0.00,,2017-06-22 05:04:00,
2017-06-22 01:35:00,64.0,60.7,29.87,WSW,247,0.0,-999.0,89,-99.99,,,0.00,,2017-06-22 05:35:00,
2017-06-22 01:40:00,63.9,60.6,29.87,WNW,292,0.0,-999.0,89,-99.99,,,0.00,,2017-06-22 05:40:00,
2017-06-22 02:03:00,63.5,60.2,29.87,ENE,67,0.0,-999.0,89,-99.99,,,0.00,,2017-06-22 06:03:00,
2017-06-22 02:08:00,63.7,60.7,29.86,ESE,112,0.0,-999.0,90,-99.99,,,0.00,,2017-06-22 06:08:00,
2017-06-22 02:13:00,64.0,61.0,29.85,ESE,112,1.1,-999.0,90,-99.99,,,0.00,,2017-06-22 06:13:00,
2017-06-22 02:19:00,64.4,61.4,29.85,SE,135,0.0,-999.0,90,-99.99,,,0.00,,2017-06-22 06:19:00,
2017-06-22 02:24:00,64.6,61.6,29.85,SE,135,0.0,-999.0,90,-99.99,,,0.00,,2017-06-22 06:24:00,
2017-06-22 02:29:00,64.8,61.8,29.85,ESE,112,0.0,-999.0,90,-99.99,,,0.00,,2017-06-22 06:29:00,
2017-06-22 02:34:00,64.8,61.8,29.85,West,270,0.0,-999.0,90,-99.99,,,0.00,,2017-06-22 06:34:00,
2017-06-22 02:39:00,64.8,61.8,29.85,East,90,0.0,-999.0,90,-99.99,,,0.00,,2017-06-22 06:39:00,
2017-06-22 02:44:00,64.8,61.8,29.85,NNE,22,0.0,-999.0,90,-99.99,,,0.00,,2017-06-22 06:44:00,
2017-06-22 02:49:00,64.8,61.8,29.84,NNE,22,0.0,-999.0,90,-99.99,,,0.00,,2017-06-22 06:49:00,
2017-06-22 02:54:00,64.8,61.8,29.84,NNE,22,0.0,-999.0,90,-99.99,,,0.00,,2017-06-22 06:54:00,
2017-06-22 02:59:00,65.3,62.3,29.84,South,180,0.0,-999.0,90,-99.99,,,0.00,,2017-06-22 06:59:00,
2017-06-22 03:08:00,66.0,63.0,29.85,ESE,112,1.7,-999.0,90,-99.99,,,0.00,,2017-06-22 07:08:00,
2017-06-22 03:15:00,66.4,63.4,29.84,North,360,0.0,-999.0,90,-99.99,,,0.00,,2017-06-22 07:15:00,
2017-06-22 03:21:00,66.2,63.2,29.84,North,360,0.0,-999.0,90,-99.99,,,0.00,,2017-06-22 07:21:00,
2017-06-22 03:29:00,66.2,63.2,29.85,SW,225,1.1,-999.0,90,-99.99,,,0.00,,2017-06-22 07:29:00,
2017-06-22 03:46:00,66.6,63.6,29.85,North,360,0.0,-999.0,90,-99.99,,,0.00,,2017-06-22 07:46:00,
2017-06-22 03:51:00,66.9,63.9,29.85,SSW,202,0.0,-999.0,90,-99.99,,,0.00,,2017-06-22 07:51:00,
2017-06-22 03:56:00,66.9,63.9,29.85,SSE,157,0.0,-999.0,90,-99.99,,,0.00,,2017-06-22 07:56:00,
2017-06-22 04:01:00,67.3,64.3,29.84,West,270,0.0,-999.0,90,-99.99,,,0.00,,2017-06-22 08:01:00,
2017-06-22 04:08:00,67.3,64.3,29.84,North,360,0.0,-999.0,90,-99.99,,,0.00,,2017-06-22 08:08:00,
2017-06-22 04:21:00,67.5,64.5,29.84,SSW,202,0.0,-999.0,90,-99.99,,,0.00,,2017-06-22 08:21:00,
2017-06-22 04:28:00,67.5,64.5,29.84,SSW,202,0.0,-999.0,90,-99.99,,,0.00,,2017-06-22 08:28:00,
2017-06-22 04:33:00,67.5,64.1,29.84,South,180,0.0,-999.0,89,-99.99,,,0.00,,2017-06-22 08:33:00,
2017-06-22 04:52:00,68.2,64.8,29.84,SSW,202,0.0,-999.0,89,-99.99,,,0.00,,2017-06-22 08:52:00,
2017-06-22 05:26:00,68.5,65.1,29.84,ESE,112,0.0,-999.0,89,-99.99,,,0.00,,2017-06-22 09:26:00,
2017-06-22 05:31:00,68.5,65.1,29.83,NE,45,0.0,-999.0,89,-99.99,,,0.00,,2017-06-22 09:31:00,
2017-06-22 05:37:00,68.5,65.1,29.83,NE,45,0.0,-999.0,89,-99.99,,,0.00,,2017-06-22 09:37:00,
2017-06-22 05:43:00,68.5,65.1,29.83,NE,45,0.0,-999.0,89,-99.99,,,0.00,,2017-06-22 09:43:00,
2017-06-22 05:57:00,69.1,65.7,29.83,ESE,112,0.0,-999.0,89,-99.99,,,0.00,,2017-06-22 09:57:00,
2017-06-22 06:02:00,69.1,65.7,29.83,ESE,112,0.0,-999.0,89,-99.99,,,0.00,,2017-06-22 10:02:00,
2017-06-22 06:15:00,69.1,65.7,29.83,ESE,112,0.0,-999.0,89,-99.99,,,0.00,,2017-06-22 10:15:00,
2017-06-22 06:21:00,69.1,65.7,29.83,SE,135,0.0,-999.0,89,-99.99,,,0.00,,2017-06-22 10:21:00,
2017-06-22 06:26:00,69.1,65.7,29.82,SE,135,0.0,-999.0,89,-99.99,,,0.00,,2017-06-22 10:26:00,
2017-06-22 06:31:00,69.1,65.7,29.82,ESE,112,0.0,-999.0,89,-99.99,,,0.00,,2017-06-22 10:31:00,
2017-06-22 06:36:00,69.1,65.7,29.82,West,270,0.0,-999.0,89,-99.99,,,0.00,,2017-06-22 10:36:00,
2017-06-22 06:41:00,69.1,65.7,29.82,ESE,112,0.0,-999.0,89,-99.99,,,0.00,,2017-06-22 10:41:00,
2017-06-22 06:47:00,69.1,65.7,29.82,SE,135,1.1,-999.0,89,-99.99,,,0.00,,2017-06-22 10:47:00,
2017-06-22 06:52:00,69.3,65.9,29.81,WNW,292,0.0,-999.0,89,-99.99,,,0.00,,2017-06-22 10:52:00,
2017-06-22 06:57:00,69.3,65.9,29.81,NNE,22,0.0,-999.0,89,-99.99,,,0.00,,2017-06-22 10:57:00,
2017-06-22 07:09:00,69.3,65.9,29.81,NE,45,0.0,-999.0,89,-99.99,,,0.00,,2017-06-22 11:09:00,
2017-06-22 07:33:00,69.6,66.2,29.81,NE,45,0.0,-999.0,89,-99.99,,,0.00,,2017-06-22 11:33:00,
2017-06-22 07:39:00,69.6,66.2,29.81,NNE,22,0.0,-999.0,89,-99.99,,,0.00,,2017-06-22 11:39:00,
2017-06-22 07:45:00,69.8,66.4,29.81,NE,45,0.0,-999.0,89,-99.99,,,0.00,,2017-06-22 11:45:00,
2017-06-22 07:50:00,70.0,66.6,29.81,East,90,0.0,-999.0,89,-99.99,,,0.00,,2017-06-22 11:50:00,
2017-06-22 07:55:00,70.2,66.8,29.81,ESE,112,0.0,-999.0,89,-99.99,,,0.00,,2017-06-22 11:55:00,
2017-06-22 08:00:00,70.3,66.9,29.81,ESE,112,0.0,-999.0,89,-99.99,,,0.00,,2017-06-22 12:00:00,
2017-06-22 08:10:00,70.9,67.2,29.81,ESE,112,0.0,-999.0,88,-99.99,,,0.00,,2017-06-22 12:10:00,
2017-06-22 08:15:00,71.1,67.4,29.81,ESE,112,0.0,-999.0,88,-99.99,,,0.00,,2017-06-22 12:15:00,
2017-06-22 08:20:00,71.2,67.5,29.81,NNE,22,0.0,-999.0,88,-99.99,,,0.00,,2017-06-22 12:20:00,
2017-06-22 08:25:00,71.4,67.3,29.81,NNE,22,0.0,-999.0,87,-99.99,,,0.00,,2017-06-22 12:25:00,
2017-06-22 08:30:00,71.6,67.5,29.81,SSW,202,0.0,-999.0,87,-99.99,,,0.00,,2017-06-22 12:30:00,
2017-06-22 08:35:00,72.0,67.9,29.81,NNW,337,0.0,-999.0,87,-99.99,,,0.00,,2017-06-22 12:35:00,
2017-06-22 08:41:00,72.0,67.9,29.81,NNE,22,0.0,-999.0,87,-99.99,,,0.00,,2017-06-22 12:41:00,
2017-06-22 08:46:00,72.3,67.9,29.81,NNE,22,0.0,-999.0,86,-99.99,,,0.00,,2017-06-22 12:46:00,
2017-06-22 08:51:00,72.7,68.3,29.82,NNE,22,0.0,-999.0,86,-99.99,,,0.00,,2017-06-22 12:51:00,
2017-06-22 08:56:00,73.0,68.6,29.82,NNW,337,0.0,-999.0,86,-99.99,,,0.00,,2017-06-22 12:56:00,
2017-06-22 08:58:00,73.2,68.4,29.82,WSW,247,0.0,-999.0,85,-99.99,,,0.00,,2017-06-22 12:58:00,
2017-06-22 09:03:00,73.8,69.0,29.82,North,360,0.0,-999.0,85,-99.99,,,0.00,,2017-06-22 13:03:00,
2017-06-22 09:08:00,74.5,69.3,29.82,SSE,157,0.0,-999.0,84,-99.99,,,0.00,,2017-06-22 13:08:00,
2017-06-22 09:14:00,75.0,69.5,29.82,East,90,0.0,-999.0,83,-99.99,,,0.00,,2017-06-22 13:14:00,
2017-06-22 09:19:00,75.6,69.7,29.82,ESE,112,0.0,-999.0,82,-99.99,,,0.00,,2017-06-22 13:19:00,
2017-06-22 09:24:00,76.1,69.8,29.82,South,180,0.0,-999.0,81,-99.99,,,0.00,,2017-06-22 13:24:00,
2017-06-22 09:29:00,76.8,70.2,29.81,ESE,112,0.0,-999.0,80,-99.99,,,0.00,,2017-06-22 13:29:00,
2017-06-22 09:35:00,76.5,69.9,29.81,ESE,112,1.7,-999.0,80,-99.99,,,0.00,,2017-06-22 13:35:00,
2017-06-22 09:40:00,76.8,69.8,29.81,West,270,2.2,-999.0,79,-99.99,,,0.00,,2017-06-22 13:40:00,
2017-06-22 09:45:00,77.5,70.1,29.81,SE,135,2.7,-999.0,78,-99.99,,,0.00,,2017-06-22 13:45:00,
2017-06-22 09:50:00,78.3,70.9,29.80,SSW,202,4.7,-999.0,78,-99.99,,,0.00,,2017-06-22 13:50:00,
2017-06-22 09:56:00,78.3,70.5,29.80,South,180,2.2,-999.0,77,-99.99,,,0.00,,2017-06-22 13:56:00,
2017-06-22 10:01:00,78.3,70.5,29.80,ESE,112,4.2,-999.0,77,-99.99,,,0.00,,2017-06-22 14:01:00,
2017-06-22 10:06:00,78.3,70.5,29.80,SE,135,1.7,-999.0,77,-99.99,,,0.00,,2017-06-22 14:06:00,
2017-06-22 10:11:00,78.6,70.4,29.80,NNW,337,3.2,-999.0,76,-99.99,,,0.00,,2017-06-22 14:11:00,
2017-06-22 10:16:00,78.6,70.4,29.80,East,90,3.2,-999.0,76,-99.99,,,0.00,,2017-06-22 14:16:00,
2017-06-22 10:22:00,77.7,69.5,29.80,East,90,3.7,-999.0,76,-99.99,,,0.00,,2017-06-22 14:22:00,
2017-06-22 10:27:00,77.7,70.3,29.80,WNW,292,1.1,-999.0,78,-99.99,,,0.00,,2017-06-22 14:27:00,
2017-06-22 10:33:00,78.1,69.9,29.80,NE,45,4.2,-999.0,76,-99.99,,,0.00,,2017-06-22 14:33:00,
2017-06-22 10:38:00,77.9,70.1,29.80,East,90,3.7,-999.0,77,-99.99,,,0.00,,2017-06-22 14:38:00,
2017-06-22 10:43:00,77.9,70.1,29.80,SSE,157,6.3,-999.0,77,-99.99,,,0.00,,2017-06-22 14:43:00,
2017-06-22 10:48:00,77.5,70.1,29.80,SE,135,4.2,-999.0,78,-99.99,,,0.00,,2017-06-22 14:48:00,
2017-06-22 10:53:00,77.9,70.1,29.79,ENE,67,3.7,-999.0,77,-99.99,,,0.00,,2017-06-22 14:53:00,
2017-06-22 10:59:00,78.1,70.3,29.79,SSW,202,4.7,-999.0,77,-99.99,,,0.00,,2017-06-22 14:59:00,
2017-06-22 11:04:00,78.1,70.3,29.79,SSE,157,4.7,-999.0,77,-99.99,,,0.00,,2017-06-22 15:04:00,
2017-06-22 11:10:00,78.1,70.3,29.79,SSE,157,2.2,-999.0,77,-99.99,,,0.00,,2017-06-22 15:10:00,
2017-06-22 11:15:00,78.4,70.6,29.78,ESE,112,4.7,-999.0,77,-99.99,,,0.00,,2017-06-22 15:15:00,
2017-06-22 11:20:00,78.6,70.8,29.78,West,270,1.7,-999.0,77,-99.99,,,0.00,,2017-06-22 15:20:00,
2017-06-22 11:26:00,79.7,71.1,29.78,ENE,67,1.7,-999.0,75,-99.99,,,0.00,,2017-06-22 15:26:00,
2017-06-22 11:31:00,80.8,71.7,29.78,East,90,0.0,-999.0,74,-99.99,,,0.00,,2017-06-22 15:31:00,
2017-06-22 11:36:00,79.9,71.3,29.78,NE,45,2.2,-999.0,75,-99.99,,,0.00,,2017-06-22 15:36:00,
2017-06-22 11:41:00,80.6,71.1,29.78,ESE,112,3.7,-999.0,73,-99.99,,,0.00,,2017-06-22 15:41:00,
2017-06-22 11:47:00,80.1,71.9,29.78,West,270,3.2,-999.0,76,-99.99,,,0.00,,2017-06-22 15:47:00,
2017-06-22 11:53:00,79.9,70.9,29.78,SE,135,2.7,-999.0,74,-99.99,,,0.00,,2017-06-22 15:53:00,
2017-06-22 11:58:00,79.9,70.9,29.78,SE,135,3.2,-999.0,74,-99.99,,,0.00,,2017-06-22 15:58:00,
2017-06-22 12:03:00,79.3,70.7,29.78,SE,135,2.7,-999.0,75,-99.99,,,0.00,,2017-06-22 16:03:00,
2017-06-22 12:08:00,81.0,71.5,29.78,ENE,67,4.2,-999.0,73,-99.99,,,0.00,,2017-06-22 16:08:00,
2017-06-22 12:14:00,79.7,71.1,29.77,ESE,112,4.2,-999.0,75,-99.99,,,0.00,,2017-06-22 16:14:00,
2017-06-22 12:20:00,81.5,72.4,29.77,NW,315,2.7,-999.0,74,-99.99,,,0.00,,2017-06-22 16:20:00,
2017-06-22 12:25:00,80.4,71.4,29.77,WSW,247,4.7,-999.0,74,-99.99,,,0.00,,2017-06-22 16:25:00,
2017-06-22 12:30:00,80.4,71.4,29.77,NNE,22,3.7,-999.0,74,-99.99,,,0.00,,2017-06-22 16:30:00,
2017-06-22 12:35:00,82.2,72.3,29.77,SE,135,3.2,-999.0,72,-99.99,,,0.00,,2017-06-22 16:35:00,
2017-06-22 12:40:00,81.5,72.0,29.77,East,90,2.2,-999.0,73,-99.99,,,0.00,,2017-06-22 16:40:00,
2017-06-22 12:45:00,81.1,71.2,29.77,South,180,2.2,-999.0,72,-99.99,,,0.00,,2017-06-22 16:45:00,
2017-06-22 12:49:00,82.4,72.5,29.77,NE,45,2.7,-999.0,72,-99.99,,,0.00,,2017-06-22 16:49:00,
2017-06-22 12:54:00,83.1,72.3,29.77,NW,315,2.7,-999.0,70,-99.99,,,0.00,,2017-06-22 16:54:00,
2017-06-22 12:59:00,82.4,71.6,29.77,South,180,5.3,-999.0,70,-99.99,,,0.00,,2017-06-22 16:59:00,
2017-06-22 13:05:00,82.0,72.1,29.77,ESE,112,3.2,-999.0,72,-99.99,,,0.00,,2017-06-22 17:05:00,
2017-06-22 13:10:00,83.3,72.5,29.77,SSW,202,2.7,-999.0,70,-99.99,,,0.00,,2017-06-22 17:10:00,